ルクソール の空港の天気 - METARとTAF

ルクソール国際空港 ( HELX / LXR ) - エジプト ルクソール
飛行場実況気象(Metar)
観測時間10/21 17:00 EET (10/21 15:00 UTC)
風向・風速北 2m/s
視程10km以上
天気現象
なし
気温36℃
湿度24%
気圧1011hPa
METARHELX 211500Z 35004KT CAVOK 36/12 Q1011 NOSIG
過去の天気等 Google飛行場航空写真 Wunderground天気予報

過去48時間のMETAR

飛行場予報(TAF)
発表時間: 10/21 13:00 EET (10/21 11:00 UTC)
予報対象時間: 21日14時 EET ~ 22日20時 EET
風向・風速北 3m/s
視程10km以上
なし
TAF HELX 211100Z 2112/2218 35006KT CAVOK